Ana Sayfa
METAR-TAF:

METAR-TAF

Havaalanları :

Hobbs, New Mexico, Amerika Birleşik Devletleri

Enlem: 32-41N, Boylam: 103-13W, yükseklik: 1115 m

Güncel hava durumu gözlemi

Rapor saat 12:50 UTC de 30 dakika önce yapıldı.
Rüzgar doğu/güneydoğudan 13 kt ve 20 kt'a kadar ani rüzgarlar
Sıcaklık 24°C
Nem 57%
Basınç 1012 hPa
Görüş mesafesi: 16.1 km
Açık gökyüzü

METAR: KHOB 161250Z 12013G20KT 10SM CLR 24/15 A2989

Saat: 07:20 (13:20 UTC)

Tahmin

Rapor saat 11:20 UTC de 2 saat ve 0 dakika önce yapıldı.
Ayın 16'si saat 12 UTC'den ayın 17'si saat 12 UTC'ye kadar geçerli Tahmin
Rüzgar güneydoğudan 12 kt
Görüş mesafesi: 10 km
Açık gökyüzü
Ayın 16'si saat 1900 UTC'den
Rüzgar güneydoğudan 14 kt ve 20 kt'a kadar ani rüzgarlar
Görüş mesafesi: 10 km
7000 ft yükseklikte parçalı bulutlu
Ayın 17'si saat 0200 UTC'den
Rüzgar güneydoğudan 17 kt
Görüş mesafesi: 10 km
Açık gökyüzü

TAF: KHOB 161120Z 1612/1712 14012KT P6SM SKC FM161900 14014G20KT P6SM SCT070 FM170200 14017KT P6SM SKC

4.000'den fazla havaalanı için hava durumu gözlemleri ve tahminleri (METAR ve TAF raporları).

Kullanılabilir istasyonlar harita üzerinde sarı ve kırmızı noktalarla gösterilir.

İstasyonun adını görmek için fareyi noktanın üzerinde gezdirin.

Sonrasında hava gözlem ve tahminlerini görmek için tıklayın.

Haritayı değiştirmek için: yaklaştırmak için siyah artı işaretli yeşil düğmeye ve uzaklaştırmak için de eksi işaretli düğmeye hızla tıklayın; bitişik haritalar için yeşil okları kullanın.


METAR-TAF: